Time;durP1;ratioP1;P1;durP2;ratioP2;P2;SDS_P1;SDS_P2;PMS_P1;PMS_P2;Temp;Humidity;BMP_temperature;BMP_pressure;BME280_temperature;BME280_humidity;BME280_pressure;Samples;Min_cycle;Max_cycle;Signal;HPM_P1;HPM_P2
2022/09/01 00:00:19;;;;;;;5.07;0.90;;;;;;;-147.53;100.00;57128.34;10301237;28;20134;-78
2022/09/01 00:05:21;;;;;;;1.95;0.95;;;;;;;-147.53;100.00;57128.34;10313585;28;20061;-78
2022/09/01 00:10:23;;;;;;;2.55;0.80;;;;;;;-147.53;100.00;57128.34;10307362;28;20161;-78
2022/09/01 00:15:25;;;;;;;2.30;0.77;;;;;;;-147.53;100.00;57128.34;10304913;28;20505;-78
2022/09/01 00:20:28;;;;;;;2.50;1.10;;;;;;;-147.53;100.00;57128.34;10299212;28;20525;-78
2022/09/01 00:25:29;;;;;;;5.00;0.80;;;;;;;-147.53;100.00;57128.34;10327257;28;20138;-78
2022/09/01 00:30:31;;;;;;;1.55;0.93;;;;;;;-147.53;100.00;57128.34;10302468;28;20038;-78
2022/09/01 00:35:32;;;;;;;1.70;0.77;;;;;;;-147.53;100.00;57128.34;10309383;28;20679;-78
2022/09/01 00:40:37;;;;;;;2.42;0.80;;;;;;;-147.53;100.00;57128.34;10304225;28;20053;-78
2022/09/01 00:45:40;;;;;;;1.33;0.93;;;;;;;-147.53;100.00;57128.34;10289710;28;20042;-78
2022/09/01 00:50:42;;;;;;;3.60;1.10;;;;;;;-147.53;100.00;57128.34;10320158;28;20070;-78
2022/09/01 00:55:49;;;;;;;6.15;1.05;;;;;;;-147.53;100.00;57128.34;10321850;28;20038;-78
2022/09/01 01:00:51;;;;;;;2.13;1.00;;;;;;;-147.53;100.00;57128.34;10308079;28;20035;-78
2022/09/01 01:05:56;;;;;;;2.90;1.13;;;;;;;-147.53;100.00;57128.34;10304484;28;20066;-78
2022/09/01 01:11:04;;;;;;;1.88;1.00;;;;;;;-147.53;100.00;57128.34;10300737;28;20141;-78
2022/09/01 01:16:08;;;;;;;1.52;0.98;;;;;;;-147.53;100.00;57128.34;10299317;28;20034;-78
2022/09/01 01:26:39;;;;;;;2.83;1.00;;;;;;;-147.53;100.00;57128.34;10320317;28;20074;-78
2022/09/01 01:31:41;;;;;;;2.50;1.33;;;;;;;-147.53;100.00;57128.34;10309913;28;20503;-78
2022/09/01 01:36:42;;;;;;;2.85;1.20;;;;;;;-147.53;100.00;57128.34;10302206;28;20035;-78
2022/09/01 01:41:48;;;;;;;3.63;1.30;;;;;;;-147.53;100.00;57128.34;10315649;28;20042;-78
2022/09/01 01:46:53;;;;;;;1.40;1.08;;;;;;;-147.53;100.00;57128.34;10297220;28;20046;-78
2022/09/01 01:51:56;;;;;;;1.88;1.15;;;;;;;-147.53;100.00;57128.34;10308680;28;20511;-78
2022/09/01 01:57:03;;;;;;;3.42;1.10;;;;;;;-147.53;100.00;57128.34;10315653;28;20041;-78
2022/09/01 02:02:08;;;;;;;2.97;1.13;;;;;;;-147.53;100.00;57128.34;10318687;28;20046;-78
2022/09/01 02:07:12;;;;;;;1.63;1.10;;;;;;;-147.53;100.00;57128.34;10291092;28;20063;-78
2022/09/01 02:12:17;;;;;;;1.30;1.00;;;;;;;-147.53;100.00;57128.34;10316774;28;20074;-78
2022/09/01 02:17:20;;;;;;;1.40;1.00;;;;;;;-147.53;100.00;57128.34;10305671;28;20041;-78
2022/09/01 02:22:22;;;;;;;3.08;1.38;;;;;;;-147.53;100.00;57128.34;10309935;28;20046;-78
2022/09/01 02:27:28;;;;;;;2.95;1.30;;;;;;;-147.53;100.00;57128.34;10280666;28;20117;-78
2022/09/01 02:32:30;;;;;;;4.72;1.30;;;;;;;-147.53;100.00;57128.34;10295954;28;20042;-78
2022/09/01 02:37:32;;;;;;;6.00;3.22;;;;;;;-147.53;100.00;57128.34;10306408;28;20163;-78
2022/09/01 02:42:35;;;;;;;1.80;1.08;;;;;;;-147.53;100.00;57128.34;10314493;28;20724;-78
2022/09/01 02:47:40;;;;;;;2.30;1.20;;;;;;;-147.53;100.00;57128.34;10309977;28;20039;-78
2022/09/01 02:52:43;;;;;;;1.65;1.13;;;;;;;-147.53;100.00;57128.34;10298742;28;20053;-78
2022/09/01 02:57:47;;;;;;;2.00;1.33;;;;;;;-147.53;100.00;57128.34;10297221;28;20112;-78
2022/09/01 03:02:51;;;;;;;3.13;1.42;;;;;;;-147.53;100.00;57128.34;10311932;28;20098;-78
2022/09/01 03:07:56;;;;;;;4.63;1.23;;;;;;;-147.53;100.00;57128.34;10300259;28;20057;-78
2022/09/01 03:13:05;;;;;;;5.10;1.45;;;;;;;-147.53;100.00;57128.34;10294777;28;20050;-78
2022/09/01 03:18:08;;;;;;;3.22;1.30;;;;;;;-147.53;100.00;57128.34;10300335;28;20050;-78
2022/09/01 03:23:15;;;;;;;2.10;1.08;;;;;;;-147.53;100.00;57128.34;10310906;28;20450;-78
2022/09/01 03:28:21;;;;;;;2.47;1.30;;;;;;;-147.53;100.00;57128.34;10285263;28;20105;-78
2022/09/01 03:33:24;;;;;;;5.40;1.35;;;;;;;-147.53;100.00;57128.34;10312448;28;20137;-78
2022/09/01 03:38:27;;;;;;;2.10;1.38;;;;;;;-147.53;100.00;57128.34;10293651;28;20058;-79
2022/09/01 03:43:33;;;;;;;3.83;1.50;;;;;;;-147.53;100.00;57128.34;10299314;28;20129;-78
2022/09/01 03:48:38;;;;;;;1.67;1.30;;;;;;;-147.53;100.00;57128.34;10305999;28;20053;-79
2022/09/01 03:53:40;;;;;;;3.30;1.50;;;;;;;-147.53;100.00;57128.34;10306039;28;20045;-78
2022/09/01 03:58:46;;;;;;;4.60;1.50;;;;;;;-147.53;100.00;57128.34;10267962;28;20402;-78
2022/09/01 04:03:51;;;;;;;3.92;1.70;;;;;;;-147.53;100.00;57128.34;10318183;28;20153;-78
2022/09/01 04:09:01;;;;;;;2.60;1.50;;;;;;;-147.53;100.00;57128.34;10286609;28;20506;-78
2022/09/01 04:14:05;;;;;;;2.60;1.35;;;;;;;-147.53;100.00;57128.34;10315784;28;20043;-77
2022/09/01 04:19:18;;;;;;;2.40;1.50;;;;;;;-147.53;100.00;57128.34;10295820;28;20525;-78
2022/09/01 04:24:23;;;;;;;3.20;1.67;;;;;;;-147.53;100.00;57128.34;10310646;28;20112;-78
2022/09/01 04:29:26;;;;;;;6.03;1.80;;;;;;;-147.53;100.00;57128.34;10304296;28;20772;-78
2022/09/01 04:34:35;;;;;;;3.63;1.80;;;;;;;-147.53;100.00;57128.34;10307291;28;20518;-78
2022/09/01 04:39:39;;;;;;;4.03;1.70;;;;;;;-147.53;100.00;57128.34;10317402;28;20113;-78
2022/09/01 04:44:41;;;;;;;3.70;1.80;;;;;;;-147.53;100.00;57128.34;10296409;28;20046;-77
2022/09/01 04:49:49;;;;;;;4.78;1.92;;;;;;;-147.53;100.00;57128.34;10321307;28;20082;-78
2022/09/01 04:54:53;;;;;;;2.63;1.80;;;;;;;-147.53;100.00;57128.34;10315379;28;20046;-77
2022/09/01 04:59:58;;;;;;;4.82;2.08;;;;;;;-147.53;100.00;57128.34;10320211;28;20577;-78
2022/09/01 05:05:02;;;;;;;6.07;2.53;;;;;;;-147.53;100.00;57128.34;10287456;28;20051;-78
2022/09/01 05:10:05;;;;;;;4.22;2.30;;;;;;;-147.53;100.00;57128.34;10298620;28;20161;-77
2022/09/01 05:15:20;;;;;;;6.25;2.25;;;;;;;-147.53;100.00;57128.34;10314127;28;20193;-78
2022/09/01 05:20:23;;;;;;;5.07;2.80;;;;;;;-147.53;100.00;57128.34;10314087;28;20494;-77
2022/09/01 05:25:26;;;;;;;7.47;2.25;;;;;;;-147.53;100.00;57128.34;10297240;28;20127;-77
2022/09/01 05:30:28;;;;;;;4.43;2.00;;;;;;;-147.53;100.00;57128.34;10313384;28;20572;-77
2022/09/01 05:35:30;;;;;;;2.70;1.50;;;;;;;-147.53;100.00;57128.34;10285550;28;20121;-77
2022/09/01 05:40:36;;;;;;;4.57;1.90;;;;;;;-147.53;100.00;57128.34;10295642;28;20043;-78
2022/09/01 05:45:44;;;;;;;5.32;2.15;;;;;;;-147.53;100.00;57128.34;10306660;28;20030;-78
2022/09/01 05:51:08;;;;;;;5.22;1.90;;;;;;;-147.53;100.00;57128.34;10323727;28;20141;-78
2022/09/01 05:56:30;;;;;;;5.90;1.85;;;;;;;-147.53;100.00;57128.34;10286544;28;20046;-77
2022/09/01 06:01:32;;;;;;;4.93;1.90;;;;;;;-147.53;100.00;57128.34;10308138;28;20050;-78
2022/09/01 06:06:48;;;;;;;3.17;1.88;;;;;;;-147.53;100.00;57128.34;10310622;28;20105;-77
2022/09/01 06:12:16;;;;;;;10.80;2.30;;;;;;;-147.53;100.00;57128.34;10318486;28;20054;-77
2022/09/01 06:17:23;;;;;;;2.45;1.52;;;;;;;-147.53;100.00;57128.34;10303461;28;20143;-77
2022/09/01 06:22:27;;;;;;;2.05;1.50;;;;;;;-147.53;100.00;57128.34;10302459;28;20050;-77
2022/09/01 06:27:32;;;;;;;4.53;1.88;;;;;;;-147.53;100.00;57128.34;10298365;28;20077;-77
2022/09/01 06:32:37;;;;;;;4.00;1.45;;;;;;;-147.53;100.00;57128.34;10307858;28;20514;-78
2022/09/01 06:37:42;;;;;;;4.82;1.52;;;;;;;-147.53;100.00;57128.34;10293116;28;20141;-77
2022/09/01 06:42:51;;;;;;;;;;;;;;;-147.53;100.00;57128.34;10303127;28;20042;-77
2022/09/01 06:47:57;;;;;;;5.90;1.70;;;;;;;-147.53;100.00;57128.34;10275519;28;20278;-77
2022/09/01 06:53:09;;;;;;;4.15;1.60;;;;;;;-147.53;100.00;57128.34;10317987;28;20592;-77
2022/09/01 06:58:33;;;;;;;8.10;2.22;;;;;;;-147.53;100.00;57128.34;10316372;28;20133;-77
2022/09/01 07:03:35;;;;;;;4.10;1.85;;;;;;;-147.53;100.00;57128.34;10302168;28;20046;-78
2022/09/01 07:08:48;;;;;;;5.65;1.85;;;;;;;-147.53;100.00;57128.34;10312553;28;20262;-77
2022/09/01 07:14:15;;;;;;;6.30;1.80;;;;;;;-147.53;100.00;57128.34;10300469;28;20133;-77
2022/09/01 07:19:17;;;;;;;4.88;1.73;;;;;;;-147.53;100.00;57128.34;10300401;28;20053;-77
2022/09/01 07:24:34;;;;;;;8.02;1.60;;;;;;;-147.53;100.00;57128.34;10280605;28;20515;-77
2022/09/01 07:29:55;;;;;;;5.57;1.65;;;;;;;-147.53;100.00;57128.34;10288422;28;20046;-77
2022/09/01 07:34:58;;;;;;;4.78;1.52;;;;;;;-147.53;100.00;57128.34;10282823;28;20482;-77
2022/09/01 07:40:08;;;;;;;2.92;1.30;;;;;;;-147.53;100.00;57128.34;10307128;28;20124;-77
2022/09/01 07:45:54;;;;;;;6.30;1.40;;;;;;;-147.53;100.00;57128.34;10287527;28;20057;-77
2022/09/01 07:51:03;;;;;;;10.18;1.30;;;;;;;-147.53;100.00;57128.34;10274483;28;20209;-77
2022/09/01 07:56:25;;;;;;;2.55;1.20;;;;;;;-147.53;100.00;57128.34;10299885;28;20038;-77
2022/09/01 08:01:27;;;;;;;3.33;1.30;;;;;;;-147.53;100.00;57128.34;10313762;28;20046;-75
2022/09/01 08:06:29;;;;;;;1.65;1.00;;;;;;;-147.53;100.00;57128.34;10286887;28;20039;-77
2022/09/01 08:11:41;;;;;;;3.85;1.20;;;;;;;-147.53;100.00;57128.34;10314508;28;20073;-77
2022/09/01 08:17:04;;;;;;;3.45;0.90;;;;;;;-147.53;100.00;57128.34;10302682;28;20042;-77
2022/09/01 08:22:27;;;;;;;3.97;0.70;;;;;;;-147.53;100.00;57128.34;10325100;28;20046;-77
2022/09/01 08:27:37;;;;;;;3.58;1.08;;;;;;;-147.53;100.00;57128.34;10318064;28;20043;-77
2022/09/01 08:32:41;;;;;;;1.02;0.70;;;;;;;-147.53;100.00;57128.34;10298116;28;20068;-77
2022/09/01 08:37:44;;;;;;;1.88;0.95;;;;;;;-147.53;100.00;57128.34;10314179;28;20066;-77
2022/09/01 08:43:13;;;;;;;2.85;0.80;;;;;;;-147.53;100.00;57128.34;10288459;28;20052;-77
2022/09/01 08:48:33;;;;;;;6.43;1.40;;;;;;;-147.53;100.00;57128.34;10303432;28;20046;-77
2022/09/01 08:54:13;;;;;;;3.45;0.93;;;;;;;-147.53;100.00;57128.34;10308287;28;20137;-78
2022/09/01 08:59:19;;;;;;;2.63;0.90;;;;;;;-147.53;100.00;57128.34;10287958;28;20035;-79
2022/09/01 09:04:52;;;;;;;2.28;0.90;;;;;;;-147.53;100.00;57128.34;10282139;28;20042;-80
2022/09/01 09:10:31;;;;;;;3.22;0.75;;;;;;;-147.53;100.00;57128.34;10280453;28;20046;-79
2022/09/01 09:15:56;;;;;;;1.30;0.60;;;;;;;-147.53;100.00;57128.34;10271030;28;20116;-78
2022/09/01 09:21:28;;;;;;;1.52;0.90;;;;;;;-147.53;100.00;57128.34;10294398;28;20046;-79
2022/09/01 09:26:37;;;;;;;3.67;0.82;;;;;;;-147.53;100.00;57128.34;10307411;28;20226;-79
2022/09/01 09:31:47;;;;;;;4.47;0.57;;;;;;;-147.53;100.00;57128.34;10299709;28;20042;-80
2022/09/01 09:36:51;;;;;;;2.17;0.70;;;;;;;-147.53;100.00;57128.34;10313385;28;20053;-79
2022/09/01 09:42:08;;;;;;;1.33;0.60;;;;;;;-147.53;100.00;57128.34;10294862;28;20078;-79
2022/09/01 09:47:33;;;;;;;1.88;0.70;;;;;;;-147.53;100.00;57128.34;10303567;28;20541;-77
2022/09/01 09:52:46;;;;;;;2.83;0.80;;;;;;;-147.53;100.00;57128.34;10299625;28;20042;-78
2022/09/01 09:57:54;;;;;;;0.75;0.60;;;;;;;-147.53;100.00;57128.34;10300656;28;20065;-77
2022/09/01 10:03:03;;;;;;;2.60;0.68;;;;;;;-147.53;100.00;57128.34;10307223;28;20050;-78
2022/09/01 10:08:36;;;;;;;2.35;0.75;;;;;;;-147.53;100.00;57128.34;10303147;28;20337;-77
2022/09/01 10:13:37;;;;;;;1.13;0.63;;;;;;;-147.53;100.00;57128.34;10300305;28;20141;-78
2022/09/01 10:18:43;;;;;;;5.72;0.60;;;;;;;-147.53;100.00;57128.34;10297740;28;20046;-78
2022/09/01 10:23:45;;;;;;;3.42;0.70;;;;;;;-147.53;100.00;57128.34;10306620;28;20046;-77
2022/09/01 10:29:25;;;;;;;4.32;1.00;;;;;;;-147.53;100.00;57128.34;10303258;28;20624;-79
2022/09/01 10:34:34;;;;;;;1.10;0.50;;;;;;;-147.53;100.00;57128.34;10272171;28;20055;-77
2022/09/01 10:40:16;;;;;;;1.13;0.60;;;;;;;-147.53;100.00;57128.34;10299696;28;20417;-77
2022/09/01 10:45:35;;;;;;;1.98;0.60;;;;;;;-147.53;100.00;57128.34;10302889;28;20410;-77
2022/09/01 10:50:38;;;;;;;1.55;0.52;;;;;;;-147.53;100.00;57128.34;10312890;28;20042;-78
2022/09/01 10:55:44;;;;;;;1.88;0.63;;;;;;;-147.53;100.00;57128.34;10315004;28;20077;-77
2022/09/01 11:00:49;;;;;;;4.40;0.60;;;;;;;-147.53;100.00;57128.34;10296036;28;20066;-78
2022/09/01 11:06:42;;;;;;;4.30;0.70;;;;;;;-147.53;100.00;57128.34;10312691;28;20057;-77
2022/09/01 11:12:24;;;;;;;3.28;0.60;;;;;;;-147.53;100.00;57128.34;10290170;28;20042;-78
2022/09/01 11:17:53;;;;;;;1.08;0.50;;;;;;;-147.53;100.00;57128.34;10292522;28;20043;-79
2022/09/01 11:23:12;;;;;;;1.70;0.60;;;;;;;-147.53;100.00;57128.34;10301218;28;20050;-77
2022/09/01 11:28:30;;;;;;;0.68;0.50;;;;;;;-147.53;100.00;57128.34;10299620;28;20142;-78
2022/09/01 11:34:10;;;;;;;1.63;0.52;;;;;;;-147.53;100.00;57128.34;10299504;28;20054;-79
2022/09/01 11:39:17;;;;;;;1.83;0.70;;;;;;;-147.53;100.00;57128.34;10304260;28;20077;-78
2022/09/01 11:44:46;;;;;;;1.67;0.60;;;;;;;-147.53;100.00;57128.34;10293187;28;20056;-79
2022/09/01 11:49:56;;;;;;;2.20;0.63;;;;;;;-147.53;100.00;57128.34;10299014;28;20030;-78
2022/09/01 11:54:59;;;;;;;1.60;0.60;;;;;;;-147.53;100.00;57128.34;10301293;28;20052;-79
2022/09/01 12:00:05;;;;;;;1.70;0.60;;;;;;;-147.53;100.00;57128.34;10293794;28;20053;-78
2022/09/01 12:05:35;;;;;;;2.47;0.77;;;;;;;-147.53;100.00;57128.34;10296687;28;20066;-78
2022/09/01 12:10:39;;;;;;;2.60;0.63;;;;;;;-147.53;100.00;57128.34;10287070;28;20038;-78
2022/09/01 12:15:41;;;;;;;2.30;0.63;;;;;;;-147.53;100.00;57128.34;10292601;28;20080;-78
2022/09/01 12:21:06;;;;;;;1.60;0.80;;;;;;;-147.53;100.00;57128.34;10290029;28;20042;-77
2022/09/01 12:26:13;;;;;;;2.83;0.52;;;;;;;-147.53;100.00;57128.34;10299389;28;20043;-78
2022/09/01 12:31:20;;;;;;;1.77;0.40;;;;;;;-147.53;100.00;57128.34;10292430;28;20623;-77
2022/09/01 12:36:26;;;;;;;0.80;0.50;;;;;;;-147.53;100.00;57128.34;10293188;28;20050;-78
2022/09/01 12:41:33;;;;;;;2.42;0.77;;;;;;;-147.53;100.00;57128.34;10297746;28;20548;-77
2022/09/01 12:46:43;;;;;;;2.40;0.52;;;;;;;-147.53;100.00;57128.34;10288818;28;20101;-77
2022/09/01 12:51:47;;;;;;;2.22;0.60;;;;;;;-147.53;100.00;57128.34;10284967;28;20073;-77
2022/09/01 12:56:50;;;;;;;2.38;0.50;;;;;;;-147.53;100.00;57128.34;10296978;28;20043;-78
2022/09/01 13:01:52;;;;;;;1.10;0.50;;;;;;;-147.53;100.00;57128.34;10291303;28;20119;-78
2022/09/01 13:07:02;;;;;;;0.82;0.38;;;;;;;-147.53;100.00;57128.34;10292548;28;20552;-79
2022/09/01 13:12:30;;;;;;;2.03;0.90;;;;;;;-147.53;100.00;57128.34;10301309;28;20057;-77
2022/09/01 13:17:31;;;;;;;1.58;0.50;;;;;;;-147.53;100.00;57128.34;10300095;28;20517;-79
2022/09/01 13:22:34;;;;;;;2.67;0.50;;;;;;;-147.53;100.00;57128.34;10298002;28;20050;-79
2022/09/01 13:27:36;;;;;;;1.08;0.50;;;;;;;-147.53;100.00;57128.34;10298443;28;20118;-78
2022/09/01 13:32:39;;;;;;;2.35;0.73;;;;;;;-147.53;100.00;57128.34;10305137;28;20126;-77
2022/09/01 13:38:00;;;;;;;2.35;0.70;;;;;;;-147.53;100.00;57128.34;10307042;28;20089;-77
2022/09/01 13:43:03;;;;;;;6.53;0.60;;;;;;;-147.53;100.00;57128.34;10295889;28;20517;-77
2022/09/01 13:48:06;;;;;;;8.55;0.80;;;;;;;-147.53;100.00;57128.34;10314741;28;20077;-77
2022/09/01 13:53:16;;;;;;;2.92;0.70;;;;;;;-147.53;100.00;57128.34;10301137;28;20529;-77
2022/09/01 13:58:18;;;;;;;1.80;0.63;;;;;;;-147.53;100.00;57128.34;10303669;28;20040;-77
2022/09/01 14:03:22;;;;;;;0.50;0.47;;;;;;;-147.53;100.00;57128.34;10298038;28;20049;-77
2022/09/01 14:08:24;;;;;;;13.93;0.93;;;;;;;-147.53;100.00;57128.34;10293144;28;20398;-78
2022/09/01 14:13:26;;;;;;;2.30;0.50;;;;;;;-147.53;100.00;57128.34;10300021;28;20122;-77
2022/09/01 14:18:35;;;;;;;3.63;0.60;;;;;;;-147.53;100.00;57128.34;10299391;28;20214;-77
2022/09/01 14:23:37;;;;;;;1.30;0.77;;;;;;;-147.53;100.00;57128.34;10311780;28;20129;-78
2022/09/01 14:28:40;;;;;;;3.65;1.00;;;;;;;-147.53;100.00;57128.34;10306664;28;20405;-77
2022/09/01 14:33:44;;;;;;;3.47;0.60;;;;;;;-147.53;100.00;57128.34;10297088;28;20050;-77
2022/09/01 14:38:46;;;;;;;1.75;0.68;;;;;;;-147.53;100.00;57128.34;10303134;28;20410;-78
2022/09/01 14:43:51;;;;;;;1.92;0.82;;;;;;;-147.53;100.00;57128.34;10291193;28;20426;-79
2022/09/01 14:48:53;;;;;;;1.73;0.60;;;;;;;-147.53;100.00;57128.34;10294657;28;20058;-78
2022/09/01 14:53:54;;;;;;;3.28;0.80;;;;;;;-147.53;100.00;57128.34;10283762;28;20074;-78
2022/09/01 14:58:59;;;;;;;2.45;0.82;;;;;;;-147.53;100.00;57128.34;10300508;28;20061;-79
2022/09/01 15:04:01;;;;;;;4.68;0.70;;;;;;;-147.53;100.00;57128.34;10295993;28;20042;-77
2022/09/01 15:09:02;;;;;;;6.53;0.98;;;;;;;-147.53;100.00;57128.34;10291023;28;20072;-78
2022/09/01 15:14:04;;;;;;;1.80;0.85;;;;;;;-147.53;100.00;57128.34;10303583;28;20049;-78
2022/09/01 15:19:11;;;;;;;1.27;0.57;;;;;;;-147.53;100.00;57128.34;10297150;28;20310;-79
2022/09/01 15:24:13;;;;;;;1.65;0.85;;;;;;;-147.53;100.00;57128.34;10297903;28;20497;-79
2022/09/01 15:29:15;;;;;;;2.95;0.70;;;;;;;-147.53;100.00;57128.34;10296774;28;20128;-78
2022/09/01 15:34:17;;;;;;;2.17;0.70;;;;;;;-147.53;100.00;57128.34;10295440;28;20097;-79
2022/09/01 15:39:20;;;;;;;1.65;0.88;;;;;;;-147.53;100.00;57128.34;10295457;28;20038;-78
2022/09/01 15:44:21;;;;;;;4.47;0.77;;;;;;;-147.53;100.00;57128.34;10297303;28;20097;-78
2022/09/01 15:49:23;;;;;;;2.38;0.77;;;;;;;-147.53;100.00;57128.34;10293658;28;20112;-78
2022/09/01 15:54:26;;;;;;;1.95;0.85;;;;;;;-147.53;100.00;57128.34;10288488;28;20711;-78
2022/09/01 15:59:31;;;;;;;1.63;0.77;;;;;;;-147.53;100.00;57128.34;10296308;28;20165;-78
2022/09/01 16:04:33;;;;;;;1.42;0.65;;;;;;;-147.53;100.00;57128.34;10298074;28;20069;-78
2022/09/01 16:09:35;;;;;;;2.30;1.00;;;;;;;-147.53;100.00;57128.34;10298050;28;20097;-78
2022/09/01 16:14:37;;;;;;;1.15;0.60;;;;;;;-147.53;100.00;57128.34;10293270;28;20570;-77
2022/09/01 16:20:02;;;;;;;1.38;0.60;;;;;;;-147.53;100.00;57128.34;10297029;28;20129;-78
2022/09/01 16:25:14;;;;;;;1.52;0.70;;;;;;;-147.53;100.00;57128.34;10296116;28;20530;-79
2022/09/01 16:30:22;;;;;;;1.23;0.60;;;;;;;-147.53;100.00;57128.34;10294375;28;20043;-77
2022/09/01 16:35:43;;;;;;;1.63;0.60;;;;;;;-147.53;100.00;57128.34;10297181;28;20066;-77
2022/09/01 16:40:56;;;;;;;0.88;0.55;;;;;;;-147.53;100.00;57128.34;10309296;28;20065;-78
2022/09/01 16:45:58;;;;;;;3.88;0.60;;;;;;;-147.53;100.00;57128.34;10306651;28;20042;-77
2022/09/01 16:51:25;;;;;;;1.52;0.28;;;;;;;-147.53;100.00;57128.34;10296820;28;20069;-79
2022/09/01 16:56:42;;;;;;;2.47;0.60;;;;;;;-147.53;100.00;57128.34;10302895;28;20042;-76
2022/09/01 17:01:47;;;;;;;1.05;0.50;;;;;;;-147.53;100.00;57128.34;10294746;28;20069;-77
2022/09/01 17:07:07;;;;;;;1.48;0.50;;;;;;;-147.53;100.00;57128.34;10306486;28;20049;-79
2022/09/01 17:12:27;;;;;;;9.70;0.80;;;;;;;-147.53;100.00;57128.34;10320863;28;20101;-78
2022/09/01 17:17:42;;;;;;;2.90;0.52;;;;;;;-147.53;100.00;57128.34;10298671;28;20046;-80
2022/09/01 17:22:50;;;;;;;1.40;0.60;;;;;;;-147.53;100.00;57128.34;10308115;28;20042;-79
2022/09/01 17:27:59;;;;;;;2.03;0.70;;;;;;;-147.53;100.00;57128.34;10292794;28;20549;-78
2022/09/01 17:33:30;;;;;;;1.50;0.70;;;;;;;-147.53;100.00;57128.34;10287575;28;20109;-78
2022/09/01 17:38:59;;;;;;;3.97;0.60;;;;;;;-147.53;100.00;57128.34;10265868;28;21533;-78
2022/09/01 17:44:41;;;;;;;1.20;0.50;;;;;;;-147.53;100.00;57128.34;10291675;28;20074;-78
2022/09/01 17:50:05;;;;;;;0.55;0.40;;;;;;;-147.53;100.00;57128.34;10284230;28;20070;-78
2022/09/01 17:55:24;;;;;;;0.63;0.55;;;;;;;-147.53;100.00;57128.34;10303956;28;20042;-80
2022/09/01 18:00:33;;;;;;;1.73;0.63;;;;;;;-147.53;100.00;57128.34;10297850;28;20549;-78
2022/09/01 18:05:42;;;;;;;5.93;0.65;;;;;;;-147.53;100.00;57128.34;10292950;28;20481;-78
2022/09/01 18:10:48;;;;;;;;;;;;;;;-147.53;100.00;57128.34;10299460;28;20049;-77
2022/09/01 18:15:52;;;;;;;1.58;0.60;;;;;;;-147.53;100.00;57128.34;10299672;28;19925;-77
2022/09/01 18:21:08;;;;;;;2.35;0.90;;;;;;;-147.53;100.00;57128.34;10298908;28;20449;-79
2022/09/01 18:26:28;;;;;;;;;;;;;;;-147.53;100.00;57128.34;10309003;28;20050;-80
2022/09/01 18:31:33;;;;;;;2.30;0.90;;;;;;;-147.53;100.00;57128.34;10316629;28;19926;-78
2022/09/01 18:37:06;;;;;;;2.42;0.70;;;;;;;-147.53;100.00;57128.34;10302526;28;20142;-78
2022/09/01 18:42:16;;;;;;;1.60;0.80;;;;;;;-147.53;100.00;57128.34;10315161;28;20085;-78
2022/09/01 18:48:01;;;;;;;3.33;0.80;;;;;;;-147.53;100.00;57128.34;10292201;28;20073;-79
2022/09/01 18:53:17;;;;;;;1.83;0.70;;;;;;;-147.53;100.00;57128.34;10299557;28;20137;-79
2022/09/01 18:58:41;;;;;;;0.98;0.70;;;;;;;-147.53;100.00;57128.34;10291249;28;20123;-78
2022/09/01 19:03:56;;;;;;;2.13;0.70;;;;;;;-147.53;100.00;57128.34;10295371;28;20128;-78
2022/09/01 19:09:27;;;;;;;2.38;0.70;;;;;;;-147.53;100.00;57128.34;10298749;28;20517;-78
2022/09/01 19:14:38;;;;;;;;;;;;;;;-147.53;100.00;57128.34;10299830;28;20031;-78
2022/09/01 19:19:45;;;;;;;7.32;0.90;;;;;;;-147.53;100.00;57128.34;10299536;28;20020;-78
2022/09/01 19:25:32;;;;;;;4.57;0.80;;;;;;;-147.53;100.00;57128.34;10300661;28;20092;-77
2022/09/01 19:30:21;;;;;;;7.10;0.95;;;;;;;-147.53;100.00;57128.34;10303598;28;20065;-77
2022/09/01 19:35:24;;;;;;;2.45;0.60;;;;;;;-147.53;100.00;57128.34;10304836;28;20053;-77
2022/09/01 19:40:32;;;;;;;3.05;1.05;;;;;;;-147.53;100.00;57128.34;10294579;28;20039;-79
2022/09/01 19:46:02;;;;;;;3.40;0.80;;;;;;;-147.53;100.00;57128.34;10283498;28;20054;-77
2022/09/01 19:51:16;;;;;;;1.25;0.70;;;;;;;-147.53;100.00;57128.34;10299839;28;20742;-78
2022/09/01 19:56:33;;;;;;;1.48;0.80;;;;;;;-147.53;100.00;57128.34;10297042;28;20426;-78
2022/09/01 20:02:14;;;;;;;2.42;0.82;;;;;;;-147.53;100.00;57128.34;10296174;28;20441;-77
2022/09/01 20:07:54;;;;;;;2.53;0.77;;;;;;;-147.53;100.00;57128.34;10296910;28;20593;-79
2022/09/01 20:13:24;;;;;;;2.33;0.80;;;;;;;-147.53;100.00;57128.34;10308312;28;20108;-77
2022/09/01 20:18:31;;;;;;;3.65;0.82;;;;;;;-147.53;100.00;57128.34;10288272;28;20564;-77
2022/09/01 20:23:47;;;;;;;2.72;0.82;;;;;;;-147.53;100.00;57128.34;10310904;28;20101;-78
2022/09/01 20:29:00;;;;;;;2.08;0.80;;;;;;;-147.53;100.00;57128.34;10302002;28;20111;-79
2022/09/01 20:34:22;;;;;;;5.05;0.80;;;;;;;-147.53;100.00;57128.34;10305658;28;20109;-79
2022/09/01 20:45:02;;;;;;;8.00;1.00;;;;;;;-147.53;100.00;57128.34;10303629;28;20061;-77
2022/09/01 20:50:11;;;;;;;4.38;1.05;;;;;;;-147.53;100.00;57128.34;10302839;28;20565;-77
2022/09/01 20:55:28;;;;;;;1.80;0.73;;;;;;;-147.53;100.00;57128.34;10301076;28;20141;-79
2022/09/01 21:00:39;;;;;;;2.10;0.70;;;;;;;-147.53;100.00;57128.34;10301560;28;20477;-78
2022/09/01 21:06:03;;;;;;;2.25;0.98;;;;;;;-147.53;100.00;57128.34;10302650;28;20062;-78
2022/09/01 21:11:37;;;;;;;2.22;0.98;;;;;;;-147.53;100.00;57128.34;10301449;28;20116;-78
2022/09/01 21:16:39;;;;;;;4.28;0.80;;;;;;;-147.53;100.00;57128.34;10295675;28;20049;-78
2022/09/01 21:21:52;;;;;;;4.43;1.08;;;;;;;-147.53;100.00;57128.34;10307515;28;20039;-77
2022/09/01 21:26:55;;;;;;;3.35;0.95;;;;;;;-147.53;100.00;57128.34;10306867;28;20174;-78
2022/09/01 21:31:57;;;;;;;3.67;0.80;;;;;;;-147.53;100.00;57128.34;10302428;28;20100;-77
2022/09/01 21:36:59;;;;;;;3.67;1.08;;;;;;;-147.53;100.00;57128.34;10290988;28;20065;-78
2022/09/01 21:42:04;;;;;;;8.30;1.00;;;;;;;-147.53;100.00;57128.34;10308352;28;20049;-77
2022/09/01 21:47:05;;;;;;;2.67;1.02;;;;;;;-147.53;100.00;57128.34;10316593;28;20165;-78
2022/09/01 21:52:08;;;;;;;4.38;0.98;;;;;;;-147.53;100.00;57128.34;10303228;28;20054;-77
2022/09/01 21:57:09;;;;;;;4.90;1.17;;;;;;;-147.53;100.00;57128.34;10302088;28;20030;-77
2022/09/01 22:02:14;;;;;;;5.25;1.25;;;;;;;-147.53;100.00;57128.34;10306066;28;20043;-77
2022/09/01 22:07:17;;;;;;;2.72;1.17;;;;;;;-147.53;100.00;57128.34;10295256;28;20051;-78
2022/09/01 22:12:19;;;;;;;3.80;0.95;;;;;;;-147.53;100.00;57128.34;10298837;28;20046;-78
2022/09/01 22:17:25;;;;;;;3.47;1.20;;;;;;;-147.53;100.00;57128.34;10302675;28;20039;-78
2022/09/01 22:22:27;;;;;;;2.95;0.80;;;;;;;-147.53;100.00;57128.34;10306746;28;20038;-78
2022/09/01 22:27:32;;;;;;;2.63;0.82;;;;;;;-147.53;100.00;57128.34;10305443;28;20054;-78
2022/09/01 22:32:36;;;;;;;2.97;1.25;;;;;;;-147.53;100.00;57128.34;10292816;28;20042;-78
2022/09/01 22:37:40;;;;;;;1.83;1.02;;;;;;;-147.53;100.00;57128.34;10316905;28;20042;-78
2022/09/01 22:42:45;;;;;;;2.05;1.20;;;;;;;-147.53;100.00;57128.34;10294231;28;20230;-77
2022/09/01 22:47:51;;;;;;;1.35;0.77;;;;;;;-147.53;100.00;57128.34;10320266;28;20136;-77
2022/09/01 22:52:53;;;;;;;2.92;0.75;;;;;;;-147.53;100.00;57128.34;10299373;28;20433;-79
2022/09/01 22:57:55;;;;;;;1.13;0.77;;;;;;;-147.53;100.00;57128.34;10298773;28;20052;-78
2022/09/01 23:02:58;;;;;;;0.90;0.60;;;;;;;-147.53;100.00;57128.34;10293658;28;20068;-77
2022/09/01 23:08:02;;;;;;;2.60;0.80;;;;;;;-147.53;100.00;57128.34;10295546;28;20042;-78
2022/09/01 23:13:04;;;;;;;1.30;0.88;;;;;;;-147.53;100.00;57128.34;10300805;28;20045;-78
2022/09/01 23:18:05;;;;;;;2.08;0.75;;;;;;;-147.53;100.00;57128.34;10304122;28;20529;-77
2022/09/01 23:23:07;;;;;;;2.17;0.80;;;;;;;-147.53;100.00;57128.34;10301779;28;20039;-78